sensor_id;sensor_type;location;lat;lon;timestamp;pressure;altitude;pressure_sealevel;temperature;humidity
38630;BME280;24384;51.988;4.644;2024-02-15T00:01:05;101572.47;;;11.76;100.00
38630;BME280;24384;51.988;4.644;2024-02-15T00:03:31;101561.00;;;11.75;100.00
38630;BME280;24384;51.988;4.644;2024-02-15T00:05:57;101566.31;;;11.75;100.00
38630;BME280;24384;51.988;4.644;2024-02-15T00:08:23;101565.44;;;11.75;100.00
38630;BME280;24384;51.988;4.644;2024-02-15T00:10:49;101571.47;;;11.80;100.00
38630;BME280;24384;51.988;4.644;2024-02-15T00:13:15;101565.38;;;11.78;100.00
38630;BME280;24384;51.988;4.644;2024-02-15T00:15:40;101567.16;;;11.77;100.00
38630;BME280;24384;51.988;4.644;2024-02-15T00:18:08;101563.69;;;11.74;100.00
38630;BME280;24384;51.988;4.644;2024-02-15T00:20:33;101563.66;;;11.75;100.00
38630;BME280;24384;51.988;4.644;2024-02-15T00:22:59;101559.94;;;11.82;100.00
38630;BME280;24384;51.988;4.644;2024-02-15T00:25:25;101553.00;;;11.78;100.00
38630;BME280;24384;51.988;4.644;2024-02-15T00:27:51;101557.41;;;11.79;100.00
38630;BME280;24384;51.988;4.644;2024-02-15T00:30:16;101558.22;;;11.81;100.00
38630;BME280;24384;51.988;4.644;2024-02-15T00:32:42;101556.50;;;11.80;100.00
38630;BME280;24384;51.988;4.644;2024-02-15T00:35:09;101555.66;;;11.78;100.00
38630;BME280;24384;51.988;4.644;2024-02-15T00:37:37;101556.50;;;11.80;100.00
38630;BME280;24384;51.988;4.644;2024-02-15T00:40:03;101555.72;;;11.75;100.00
38630;BME280;24384;51.988;4.644;2024-02-15T00:42:29;101565.41;;;11.76;100.00
38630;BME280;24384;51.988;4.644;2024-02-15T00:44:57;101549.44;;;11.81;100.00
38630;BME280;24384;51.988;4.644;2024-02-15T00:47:22;101545.19;;;11.74;100.00
38630;BME280;24384;51.988;4.644;2024-02-15T00:49:47;101555.94;;;11.68;100.00
38630;BME280;24384;51.988;4.644;2024-02-15T00:52:15;101551.50;;;11.70;100.00
38630;BME280;24384;51.988;4.644;2024-02-15T00:54:40;101541.06;;;11.65;100.00
38630;BME280;24384;51.988;4.644;2024-02-15T00:57:06;101540.16;;;11.64;100.00
38630;BME280;24384;51.988;4.644;2024-02-15T00:59:32;101548.03;;;11.66;100.00
38630;BME280;24384;51.988;4.644;2024-02-15T01:02:01;101544.53;;;11.65;100.00
38630;BME280;24384;51.988;4.644;2024-02-15T01:04:27;101547.19;;;11.65;100.00
38630;BME280;24384;51.988;4.644;2024-02-15T01:06:53;101547.16;;;11.67;100.00
38630;BME280;24384;51.988;4.644;2024-02-15T01:09:18;101547.16;;;11.67;100.00
38630;BME280;24384;51.988;4.644;2024-02-15T01:11:46;101537.34;;;11.71;100.00
38630;BME280;24384;51.988;4.644;2024-02-15T01:14:11;101533.09;;;11.67;100.00
38630;BME280;24384;51.988;4.644;2024-02-15T01:16:36;101519.81;;;11.68;100.00
38630;BME280;24384;51.988;4.644;2024-02-15T01:19:02;101520.72;;;11.67;100.00
38630;BME280;24384;51.988;4.644;2024-02-15T01:21:28;101534.09;;;11.61;100.00
38630;BME280;24384;51.988;4.644;2024-02-15T01:23:53;101535.81;;;11.63;100.00
38630;BME280;24384;51.988;4.644;2024-02-15T01:26:21;101534.09;;;11.61;100.00
38630;BME280;24384;51.988;4.644;2024-02-15T01:28:48;101526.28;;;11.56;100.00
38630;BME280;24384;51.988;4.644;2024-02-15T01:31:14;101525.31;;;11.60;100.00
38630;BME280;24384;51.988;4.644;2024-02-15T01:33:42;101520.00;;;11.62;100.00
38630;BME280;24384;51.988;4.644;2024-02-15T01:36:07;101515.72;;;11.56;100.00
38630;BME280;24384;51.988;4.644;2024-02-15T01:38:33;101512.16;;;11.59;100.00
38630;BME280;24384;51.988;4.644;2024-02-15T01:40:58;101520.72;;;11.67;100.00
38630;BME280;24384;51.988;4.644;2024-02-15T01:43:23;101518.94;;;11.68;100.00
38630;BME280;24384;51.988;4.644;2024-02-15T01:45:49;101524.38;;;11.61;100.00
38630;BME280;24384;51.988;4.644;2024-02-15T01:48:19;101514.72;;;11.62;100.00
38630;BME280;24384;51.988;4.644;2024-02-15T01:50:44;101523.53;;;11.61;100.00
38630;BME280;24384;51.988;4.644;2024-02-15T01:53:11;101511.09;;;11.64;100.00
38630;BME280;24384;51.988;4.644;2024-02-15T01:55:37;101506.66;;;11.67;100.00
38630;BME280;24384;51.988;4.644;2024-02-15T01:58:03;101507.44;;;11.70;100.00
38630;BME280;24384;51.988;4.644;2024-02-15T02:00:30;101506.50;;;11.73;100.00
38630;BME280;24384;51.988;4.644;2024-02-15T02:02:56;101499.63;;;11.65;100.00
38630;BME280;24384;51.988;4.644;2024-02-15T02:05:28;101490.69;;;11.71;100.00
38630;BME280;24384;51.988;4.644;2024-02-15T02:07:56;101491.63;;;11.69;100.00
38630;BME280;24384;51.988;4.644;2024-02-15T02:10:25;101486.28;;;11.70;100.00
38630;BME280;24384;51.988;4.644;2024-02-15T02:12:52;101485.47;;;11.68;100.00
38630;BME280;24384;51.988;4.644;2024-02-15T02:15:18;101480.19;;;11.68;100.00
38630;BME280;24384;51.988;4.644;2024-02-15T02:17:50;101485.31;;;11.74;100.00
38630;BME280;24384;51.988;4.644;2024-02-15T02:20:16;101493.19;;;11.76;100.00
38630;BME280;24384;51.988;4.644;2024-02-15T02:22:44;101485.34;;;11.73;100.00
38630;BME280;24384;51.988;4.644;2024-02-15T02:25:11;101481.69;;;11.77;100.00
38630;BME280;24384;51.988;4.644;2024-02-15T02:27:38;101485.22;;;11.77;100.00
38630;BME280;24384;51.988;4.644;2024-02-15T02:30:15;101480.88;;;11.75;100.00
38630;BME280;24384;51.988;4.644;2024-02-15T02:32:42;101480.09;;;11.71;100.00
38630;BME280;24384;51.988;4.644;2024-02-15T02:35:07;101473.78;;;11.77;100.00
38630;BME280;24384;51.988;4.644;2024-02-15T02:37:37;101472.81;;;11.79;100.00
38630;BME280;24384;51.988;4.644;2024-02-15T02:40:08;101476.94;;;11.90;100.00
38630;BME280;24384;51.988;4.644;2024-02-15T02:42:51;101473.56;;;11.85;100.00
38630;BME280;24384;51.988;4.644;2024-02-15T02:45:17;101478.94;;;11.81;100.00
38630;BME280;24384;51.988;4.644;2024-02-15T02:47:51;101475.38;;;11.82;100.00
38630;BME280;24384;51.988;4.644;2024-02-15T02:50:17;101466.56;;;11.83;100.00
38630;BME280;24384;51.988;4.644;2024-02-15T02:52:43;101480.59;;;11.86;100.00
38630;BME280;24384;51.988;4.644;2024-02-15T02:55:09;101476.16;;;11.86;100.00
38630;BME280;24384;51.988;4.644;2024-02-15T02:57:38;101476.25;;;11.83;100.00
38630;BME280;24384;51.988;4.644;2024-02-15T03:00:10;101467.47;;;11.82;100.00
38630;BME280;24384;51.988;4.644;2024-02-15T03:02:42;101477.16;;;11.82;100.00
38630;BME280;24384;51.988;4.644;2024-02-15T03:05:11;101474.47;;;11.83;100.00
38630;BME280;24384;51.988;4.644;2024-02-15T03:07:38;101477.25;;;11.79;100.00
38630;BME280;24384;51.988;4.644;2024-02-15T03:10:06;101463.03;;;11.83;100.00
38630;BME280;24384;51.988;4.644;2024-02-15T03:12:36;101467.41;;;11.84;100.00
38630;BME280;24384;51.988;4.644;2024-02-15T03:15:05;101472.66;;;11.86;100.00
38630;BME280;24384;51.988;4.644;2024-02-15T03:17:37;101458.53;;;11.87;100.00
38630;BME280;24384;51.988;4.644;2024-02-15T03:20:10;101460.38;;;11.83;100.00
38630;BME280;24384;51.988;4.644;2024-02-15T03:22:56;101461.41;;;11.79;100.00
38630;BME280;24384;51.988;4.644;2024-02-15T03:25:23;101459.44;;;11.86;100.00
38630;BME280;24384;51.988;4.644;2024-02-15T03:27:52;101458.53;;;11.87;100.00
38630;BME280;24384;51.988;4.644;2024-02-15T03:30:19;101462.97;;;11.85;100.00
38630;BME280;24384;51.988;4.644;2024-02-15T03:32:45;101456.88;;;11.82;100.00
38630;BME280;24384;51.988;4.644;2024-02-15T03:35:14;101463.97;;;11.82;100.00
38630;BME280;24384;51.988;4.644;2024-02-15T03:37:40;101462.38;;;11.75;100.00
38630;BME280;24384;51.988;4.644;2024-02-15T03:40:07;101457.09;;;11.75;100.00
38630;BME280;24384;51.988;4.644;2024-02-15T03:42:34;101472.97;;;11.75;100.00
38630;BME280;24384;51.988;4.644;2024-02-15T03:45:02;101455.47;;;11.69;100.00
38630;BME280;24384;51.988;4.644;2024-02-15T03:47:28;101465.16;;;11.70;100.00
38630;BME280;24384;51.988;4.644;2024-02-15T03:49:54;101463.31;;;11.72;100.00
38630;BME280;24384;51.988;4.644;2024-02-15T03:52:21;101466.91;;;11.71;100.00
38630;BME280;24384;51.988;4.644;2024-02-15T03:54:47;101457.22;;;11.70;100.00
38630;BME280;24384;51.988;4.644;2024-02-15T03:57:12;101460.78;;;11.69;100.00
38630;BME280;24384;51.988;4.644;2024-02-15T03:59:38;101450.25;;;11.68;100.00
38630;BME280;24384;51.988;4.644;2024-02-15T04:02:05;101452.16;;;11.62;100.00
38630;BME280;24384;51.988;4.644;2024-02-15T04:04:33;101454.94;;;11.58;100.00
38630;BME280;24384;51.988;4.644;2024-02-15T04:06:59;101448.81;;;11.56;100.00
38630;BME280;24384;51.988;4.644;2024-02-15T04:09:25;101441.75;;;11.56;100.00
38630;BME280;24384;51.988;4.644;2024-02-15T04:11:50;101439.00;;;11.61;100.00
38630;BME280;24384;51.988;4.644;2024-02-15T04:14:18;101438.31;;;11.54;100.00
38630;BME280;24384;51.988;4.644;2024-02-15T04:16:44;101439.16;;;11.55;100.00
38630;BME280;24384;51.988;4.644;2024-02-15T04:19:10;101443.47;;;11.59;100.00
38630;BME280;24384;51.988;4.644;2024-02-15T04:21:35;101441.69;;;11.59;100.00
38630;BME280;24384;51.988;4.644;2024-02-15T04:24:01;101449.63;;;11.58;100.00
38630;BME280;24384;51.988;4.644;2024-02-15T04:26:28;101447.97;;;11.54;100.00
38630;BME280;24384;51.988;4.644;2024-02-15T04:28:57;101438.31;;;11.54;100.00
38630;BME280;24384;51.988;4.644;2024-02-15T04:31:23;101433.84;;;11.56;100.00
38630;BME280;24384;51.988;4.644;2024-02-15T04:33:52;101418.84;;;11.57;100.00
38630;BME280;24384;51.988;4.644;2024-02-15T04:36:18;101422.44;;;11.54;100.00
38630;BME280;24384;51.988;4.644;2024-02-15T04:38:48;101429.50;;;11.54;100.00
38630;BME280;24384;51.988;4.644;2024-02-15T04:41:15;101422.63;;;11.48;100.00
38630;BME280;24384;51.988;4.644;2024-02-15T04:43:44;101435.78;;;11.50;100.00
38630;BME280;24384;51.988;4.644;2024-02-15T04:46:11;101441.00;;;11.53;100.00
38630;BME280;24384;51.988;4.644;2024-02-15T04:48:38;101441.06;;;11.50;100.00
38630;BME280;24384;51.988;4.644;2024-02-15T04:51:05;101448.97;;;11.51;100.00
38630;BME280;24384;51.988;4.644;2024-02-15T04:53:30;101455.00;;;11.55;100.00
38630;BME280;24384;51.988;4.644;2024-02-15T04:55:57;101448.81;;;11.56;100.00
38630;BME280;24384;51.988;4.644;2024-02-15T04:58:26;101444.53;;;11.52;100.00
38630;BME280;24384;51.988;4.644;2024-02-15T05:00:52;101441.06;;;11.50;100.00
38630;BME280;24384;51.988;4.644;2024-02-15T05:03:19;101431.19;;;11.56;100.00
38630;BME280;24384;51.988;4.644;2024-02-15T05:05:44;101409.19;;;11.56;100.00
38630;BME280;24384;51.988;4.644;2024-02-15T05:08:09;101384.59;;;11.54;100.00
38630;BME280;24384;51.988;4.644;2024-02-15T05:10:35;101361.75;;;11.53;100.00
38630;BME280;24384;51.988;4.644;2024-02-15T05:13:00;101354.66;;;11.53;100.00
38630;BME280;24384;51.988;4.644;2024-02-15T05:15:26;101382.69;;;11.59;100.00
38630;BME280;24384;51.988;4.644;2024-02-15T05:17:51;101393.44;;;11.53;100.00
38630;BME280;24384;51.988;4.644;2024-02-15T05:20:17;101381.75;;;11.60;100.00
38630;BME280;24384;51.988;4.644;2024-02-15T05:22:48;101383.72;;;11.53;100.00
38630;BME280;24384;51.988;4.644;2024-02-15T05:25:13;101381.81;;;11.58;100.00
38630;BME280;24384;51.988;4.644;2024-02-15T05:27:40;101372.97;;;11.59;100.00
38630;BME280;24384;51.988;4.644;2024-02-15T05:30:07;101374.84;;;11.56;100.00
38630;BME280;24384;51.988;4.644;2024-02-15T05:32:34;101371.09;;;11.63;100.00
38630;BME280;24384;51.988;4.644;2024-02-15T05:35:08;101369.44;;;11.60;100.00
38630;BME280;24384;51.988;4.644;2024-02-15T05:37:33;101369.44;;;11.60;100.00
38630;BME280;24384;51.988;4.644;2024-02-15T05:40:00;101376.47;;;11.60;100.00
38630;BME280;24384;51.988;4.644;2024-02-15T05:42:25;101380.97;;;11.58;100.00
38630;BME280;24384;51.988;4.644;2024-02-15T05:44:52;101374.56;;;11.67;100.00
38630;BME280;24384;51.988;4.644;2024-02-15T05:47:17;101375.50;;;11.64;100.00
38630;BME280;24384;51.988;4.644;2024-02-15T05:49:42;101370.06;;;11.69;100.00
38630;BME280;24384;51.988;4.644;2024-02-15T05:52:08;101377.91;;;11.72;100.00
38630;BME280;24384;51.988;4.644;2024-02-15T05:54:34;101393.03;;;11.67;100.00
38630;BME280;24384;51.988;4.644;2024-02-15T05:57:00;101374.47;;;11.70;100.00
38630;BME280;24384;51.988;4.644;2024-02-15T05:59:26;101373.66;;;11.66;100.00
38630;BME280;24384;51.988;4.644;2024-02-15T06:01:51;101366.63;;;11.67;100.00
38630;BME280;24384;51.988;4.644;2024-02-15T06:04:17;101364.03;;;11.65;100.00
38630;BME280;24384;51.988;4.644;2024-02-15T06:06:43;101362.41;;;11.59;100.00
38630;BME280;24384;51.988;4.644;2024-02-15T06:09:08;101349.13;;;11.62;100.00
38630;BME280;24384;51.988;4.644;2024-02-15T06:11:34;101362.34;;;11.62;100.00
38630;BME280;24384;51.988;4.644;2024-02-15T06:13:59;101346.25;;;11.70;100.00
38630;BME280;24384;51.988;4.644;2024-02-15T06:16:24;101349.78;;;11.69;100.00
38630;BME280;24384;51.988;4.644;2024-02-15T06:18:50;101359.97;;;11.53;100.00
38630;BME280;24384;51.988;4.644;2024-02-15T06:21:15;101360.53;;;11.63;100.00
38630;BME280;24384;51.988;4.644;2024-02-15T06:23:41;101354.44;;;11.61;100.00
38630;BME280;24384;51.988;4.644;2024-02-15T06:26:06;101356.19;;;11.62;100.00
38630;BME280;24384;51.988;4.644;2024-02-15T06:28:32;101358.88;;;11.60;100.00
38630;BME280;24384;51.988;4.644;2024-02-15T06:31:16;101356.38;;;11.56;100.00
38630;BME280;24384;51.988;4.644;2024-02-15T06:34:02;101347.59;;;11.54;100.00
38630;BME280;24384;51.988;4.644;2024-02-15T06:36:48;101352.88;;;11.54;100.00
38630;BME280;24384;51.988;4.644;2024-02-15T06:39:32;101336.94;;;11.57;100.00
38630;BME280;24384;51.988;4.644;2024-02-15T06:42:07;101345.84;;;11.54;100.00
38630;BME280;24384;51.988;4.644;2024-02-15T06:44:33;101343.19;;;11.54;100.00
38630;BME280;24384;51.988;4.644;2024-02-15T06:46:58;101351.91;;;11.58;100.00
38630;BME280;24384;51.988;4.644;2024-02-15T06:49:24;101347.59;;;11.54;100.00
38630;BME280;24384;51.988;4.644;2024-02-15T06:51:50;101351.13;;;11.54;100.00
38630;BME280;24384;51.988;4.644;2024-02-15T06:54:16;101359.81;;;11.58;100.00
38630;BME280;24384;51.988;4.644;2024-02-15T06:56:43;101363.28;;;11.60;100.00
38630;BME280;24384;51.988;4.644;2024-02-15T06:59:11;101370.31;;;11.61;100.00
38630;BME280;24384;51.988;4.644;2024-02-15T07:01:39;101380.06;;;11.59;100.00
38630;BME280;24384;51.988;4.644;2024-02-15T07:04:04;101384.50;;;11.57;100.00
38630;BME280;24384;51.988;4.644;2024-02-15T07:06:29;101360.59;;;11.61;100.00
38630;BME280;24384;51.988;4.644;2024-02-15T07:08:56;101360.72;;;11.57;100.00
38630;BME280;24384;51.988;4.644;2024-02-15T07:11:23;101365.97;;;11.58;100.00
38630;BME280;24384;51.988;4.644;2024-02-15T07:13:48;101363.31;;;11.58;100.00
38630;BME280;24384;51.988;4.644;2024-02-15T07:16:13;101361.78;;;11.51;100.00
38630;BME280;24384;51.988;4.644;2024-02-15T07:18:41;101366.00;;;11.57;100.00
38630;BME280;24384;51.988;4.644;2024-02-15T07:21:06;101375.00;;;11.51;100.00
38630;BME280;24384;51.988;4.644;2024-02-15T07:23:36;101378.53;;;11.50;100.00
38630;BME280;24384;51.988;4.644;2024-02-15T07:26:01;101384.66;;;11.51;100.00
38630;BME280;24384;51.988;4.644;2024-02-15T07:28:29;101375.81;;;11.53;100.00
38630;BME280;24384;51.988;4.644;2024-02-15T07:30:55;101388.06;;;11.56;100.00
38630;BME280;24384;51.988;4.644;2024-02-15T07:33:22;101381.91;;;11.55;100.00
38630;BME280;24384;51.988;4.644;2024-02-15T07:35:48;101373.88;;;11.58;100.00
38630;BME280;24384;51.988;4.644;2024-02-15T07:38:16;101378.34;;;11.56;100.00
38630;BME280;24384;51.988;4.644;2024-02-15T07:40:41;101376.53;;;11.58;100.00
38630;BME280;24384;51.988;4.644;2024-02-15T07:43:06;101379.25;;;11.55;100.00
38630;BME280;24384;51.988;4.644;2024-02-15T07:45:32;101368.66;;;11.57;100.00
38630;BME280;24384;51.988;4.644;2024-02-15T07:48:00;101367.63;;;11.62;100.00
38630;BME280;24384;51.988;4.644;2024-02-15T07:50:26;101364.28;;;11.56;100.00
38630;BME280;24384;51.988;4.644;2024-02-15T07:52:51;101363.44;;;11.54;100.00
38630;BME280;24384;51.988;4.644;2024-02-15T07:55:17;101364.16;;;11.60;100.00
38630;BME280;24384;51.988;4.644;2024-02-15T07:57:42;101359.69;;;11.62;100.00
38630;BME280;24384;51.988;4.644;2024-02-15T08:00:08;101350.03;;;11.61;100.00
38630;BME280;24384;51.988;4.644;2024-02-15T08:02:38;101359.50;;;11.69;100.00
38630;BME280;24384;51.988;4.644;2024-02-15T08:05:07;101361.28;;;11.68;100.00
38630;BME280;24384;51.988;4.644;2024-02-15T08:07:41;101362.06;;;11.72;100.00
38630;BME280;24384;51.988;4.644;2024-02-15T08:10:07;101355.91;;;11.71;100.00
38630;BME280;24384;51.988;4.644;2024-02-15T08:12:40;101346.38;;;11.65;100.00
38630;BME280;24384;51.988;4.644;2024-02-15T08:15:08;101341.59;;;11.78;100.00
38630;BME280;24384;51.988;4.644;2024-02-15T08:17:43;101339.00;;;11.77;100.00
38630;BME280;24384;51.988;4.644;2024-02-15T08:20:11;101348.72;;;11.76;100.00
38630;BME280;24384;51.988;4.644;2024-02-15T08:22:38;101361.97;;;11.75;100.00
38630;BME280;24384;51.988;4.644;2024-02-15T08:25:09;101365.59;;;11.71;100.00
38630;BME280;24384;51.988;4.644;2024-02-15T08:27:41;101367.56;;;11.64;100.00
38630;BME280;24384;51.988;4.644;2024-02-15T08:30:09;101358.59;;;11.70;100.00
38630;BME280;24384;51.988;4.644;2024-02-15T08:32:36;101362.16;;;11.69;100.00
38630;BME280;24384;51.988;4.644;2024-02-15T08:35:02;101360.28;;;11.72;100.00
38630;BME280;24384;51.988;4.644;2024-02-15T08:37:30;101355.84;;;11.74;100.00
38630;BME280;24384;51.988;4.644;2024-02-15T08:39:56;101362.81;;;11.75;100.00
38630;BME280;24384;51.988;4.644;2024-02-15T08:42:22;101357.34;;;11.81;100.00
38630;BME280;24384;51.988;4.644;2024-02-15T08:44:50;101359.19;;;11.79;100.00
38630;BME280;24384;51.988;4.644;2024-02-15T08:47:16;101350.34;;;11.80;100.00
38630;BME280;24384;51.988;4.644;2024-02-15T08:49:41;101345.88;;;11.82;100.00
38630;BME280;24384;51.988;4.644;2024-02-15T08:52:07;101332.66;;;11.82;100.00
38630;BME280;24384;51.988;4.644;2024-02-15T08:54:35;101335.25;;;11.84;100.00
38630;BME280;24384;51.988;4.644;2024-02-15T08:57:04;101335.91;;;11.92;100.00
38630;BME280;24384;51.988;4.644;2024-02-15T08:59:29;101343.88;;;11.91;100.00
38630;BME280;24384;51.988;4.644;2024-02-15T09:01:55;101334.22;;;11.90;100.00
38630;BME280;24384;51.988;4.644;2024-02-15T09:04:22;101338.50;;;11.94;100.00
38630;BME280;24384;51.988;4.644;2024-02-15T09:06:51;101335.03;;;11.92;100.00
38630;BME280;24384;51.988;4.644;2024-02-15T09:09:16;101342.75;;;11.99;100.00
38630;BME280;24384;51.988;4.644;2024-02-15T09:11:41;101332.38;;;11.93;100.00
38630;BME280;24384;51.988;4.644;2024-02-15T09:14:07;101341.06;;;11.97;100.00
38630;BME280;24384;51.988;4.644;2024-02-15T09:16:35;101344.66;;;11.96;100.00
38630;BME280;24384;51.988;4.644;2024-02-15T09:19:01;101341.94;;;11.97;100.00
38630;BME280;24384;51.988;4.644;2024-02-15T09:21:27;101339.22;;;12.00;100.00
38630;BME280;24384;51.988;4.644;2024-02-15T09:23:54;101340.97;;;12.00;100.00
38630;BME280;24384;51.988;4.644;2024-02-15T09:26:19;101347.25;;;11.97;100.00
38630;BME280;24384;51.988;4.644;2024-02-15T09:28:45;101328.41;;;12.08;100.00
38630;BME280;24384;51.988;4.644;2024-02-15T09:31:14;101329.16;;;12.12;100.00
38630;BME280;24384;51.988;4.644;2024-02-15T09:33:40;101322.19;;;12.09;100.00
38630;BME280;24384;51.988;4.644;2024-02-15T09:36:05;101340.38;;;12.18;100.00
38630;BME280;24384;51.988;4.644;2024-02-15T09:38:33;101348.03;;;12.28;100.00
38630;BME280;24384;51.988;4.644;2024-02-15T09:40:59;101349.72;;;12.30;100.00
38630;BME280;24384;51.988;4.644;2024-02-15T09:43:24;101343.38;;;12.36;100.00
38630;BME280;24384;51.988;4.644;2024-02-15T09:45:55;101336.31;;;12.36;100.00
38630;BME280;24384;51.988;4.644;2024-02-15T09:48:23;101338.75;;;12.43;100.00
38630;BME280;24384;51.988;4.644;2024-02-15T09:50:52;101349.88;;;12.52;100.00
38630;BME280;24384;51.988;4.644;2024-02-15T09:53:23;101346.13;;;12.60;100.00
38630;BME280;24384;51.988;4.644;2024-02-15T09:55:53;101347.34;;;12.76;100.00
38630;BME280;24384;51.988;4.644;2024-02-15T09:58:19;101332.81;;;12.88;100.00
38630;BME280;24384;51.988;4.644;2024-02-15T10:00:47;101332.00;;;12.86;100.00
38630;BME280;24384;51.988;4.644;2024-02-15T10:03:18;101322.34;;;13.10;100.00
38630;BME280;24384;51.988;4.644;2024-02-15T10:05:44;101340.59;;;13.18;100.00
38630;BME280;24384;51.988;4.644;2024-02-15T10:08:09;101333.72;;;13.12;100.00
38630;BME280;24384;51.988;4.644;2024-02-15T10:10:36;101339.88;;;12.87;100.00
38630;BME280;24384;51.988;4.644;2024-02-15T10:13:01;101342.75;;;12.81;100.00
38630;BME280;24384;51.988;4.644;2024-02-15T10:15:27;101358.25;;;12.92;100.00
38630;BME280;24384;51.988;4.644;2024-02-15T10:17:54;101352.22;;;12.88;100.00
38630;BME280;24384;51.988;4.644;2024-02-15T10:20:20;101354.34;;;12.77;100.00
38630;BME280;24384;51.988;4.644;2024-02-15T10:22:46;101346.81;;;12.92;100.00
38630;BME280;24384;51.988;4.644;2024-02-15T10:25:14;101365.41;;;12.90;100.00
38630;BME280;24384;51.988;4.644;2024-02-15T10:27:44;101346.72;;;12.95;100.00
38630;BME280;24384;51.988;4.644;2024-02-15T10:30:20;101342.91;;;13.02;100.00
38630;BME280;24384;51.988;4.644;2024-02-15T10:32:46;101352.59;;;13.03;100.00
38630;BME280;24384;51.988;4.644;2024-02-15T10:35:22;101345.34;;;13.08;100.00
38630;BME280;24384;51.988;4.644;2024-02-15T10:37:48;101345.00;;;13.17;100.00
38630;BME280;24384;51.988;4.644;2024-02-15T10:40:22;101346.88;;;13.15;100.00
38630;BME280;24384;51.988;4.644;2024-02-15T10:42:52;101350.97;;;13.49;100.00
38630;BME280;24384;51.988;4.644;2024-02-15T10:45:21;101342.16;;;13.49;100.00
38630;BME280;24384;51.988;4.644;2024-02-15T10:47:47;101345.44;;;13.55;100.00
38630;BME280;24384;51.988;4.644;2024-02-15T10:50:15;101343.94;;;13.72;100.00
38630;BME280;24384;51.988;4.644;2024-02-15T10:52:59;101338.69;;;13.70;100.00
38630;BME280;24384;51.988;4.644;2024-02-15T10:55:35;101341.38;;;13.92;100.00
38630;BME280;24384;51.988;4.644;2024-02-15T10:58:01;101338.78;;;14.13;100.00
38630;BME280;24384;51.988;4.644;2024-02-15T11:00:32;101340.28;;;13.98;100.00
38630;BME280;24384;51.988;4.644;2024-02-15T11:03:02;101340.91;;;14.05;100.00
38630;BME280;24384;51.988;4.644;2024-02-15T11:05:32;101342.56;;;14.07;100.00
38630;BME280;24384;51.988;4.644;2024-02-15T11:08:03;101343.06;;;13.95;100.00
38630;BME280;24384;51.988;4.644;2024-02-15T11:10:30;101331.63;;;13.93;100.00
38630;BME280;24384;51.988;4.644;2024-02-15T11:12:59;101333.59;;;13.88;100.00
38630;BME280;24384;51.988;4.644;2024-02-15T11:15:44;101326.56;;;13.87;100.00
38630;BME280;24384;51.988;4.644;2024-02-15T11:18:44;101328.31;;;14.10;100.00
38630;BME280;24384;51.988;4.644;2024-02-15T11:21:11;101322.63;;;14.19;100.00
38630;BME280;24384;51.988;4.644;2024-02-15T11:23:36;101312.28;;;14.35;100.00
38630;BME280;24384;51.988;4.644;2024-02-15T11:26:02;101312.13;;;14.81;100.00
38630;BME280;24384;51.988;4.644;2024-02-15T11:28:35;101303.38;;;14.79;100.00
38630;BME280;24384;51.988;4.644;2024-02-15T11:31:02;101303.56;;;14.74;100.00
38630;BME280;24384;51.988;4.644;2024-02-15T11:33:31;101304.16;;;14.60;100.00
38630;BME280;24384;51.988;4.644;2024-02-15T11:36:08;101300.19;;;14.48;100.00
38630;BME280;24384;51.988;4.644;2024-02-15T11:38:35;101293.56;;;14.60;100.00
38630;BME280;24384;51.988;4.644;2024-02-15T11:41:05;101289.06;;;14.40;100.00
38630;BME280;24384;51.988;4.644;2024-02-15T11:46:12;101292.56;;;14.41;100.00
38630;BME280;24384;51.988;4.644;2024-02-15T11:48:38;101277.28;;;14.68;100.00
38630;BME280;24384;51.988;4.644;2024-02-15T11:51:05;101279.88;;;14.70;100.00
38630;BME280;24384;51.988;4.644;2024-02-15T11:53:31;101275.78;;;14.83;100.00
38630;BME280;24384;51.988;4.644;2024-02-15T11:56:00;101275.16;;;14.76;100.00
38630;BME280;24384;51.988;4.644;2024-02-15T11:58:25;101272.31;;;14.81;100.00
38630;BME280;24384;51.988;4.644;2024-02-15T12:01:00;101266.34;;;14.76;100.00
38630;BME280;24384;51.988;4.644;2024-02-15T12:03:44;101258.94;;;14.82;100.00
38630;BME280;24384;51.988;4.644;2024-02-15T12:06:28;101259.38;;;14.94;100.00
38630;BME280;24384;51.988;4.644;2024-02-15T12:09:12;101261.19;;;15.12;100.00
38630;BME280;24384;51.988;4.644;2024-02-15T12:11:59;101248.13;;;15.08;100.00
38630;BME280;24384;51.988;4.644;2024-02-15T12:14:43;101244.34;;;15.32;100.00
38630;BME280;24384;51.988;4.644;2024-02-15T12:17:27;101254.81;;;15.54;100.00
38630;BME280;24384;51.988;4.644;2024-02-15T12:20:11;101246.53;;;15.80;100.00
38630;BME280;24384;51.988;4.644;2024-02-15T12:22:48;101246.09;;;16.06;100.00
38630;BME280;24384;51.988;4.644;2024-02-15T12:25:16;101243.50;;;15.87;100.00
38630;BME280;24384;51.988;4.644;2024-02-15T12:27:46;101245.03;;;16.10;100.00
38630;BME280;24384;51.988;4.644;2024-02-15T12:30:16;101236.72;;;15.99;100.00
38630;BME280;24384;51.988;4.644;2024-02-15T12:32:45;101225.78;;;16.05;100.00
38630;BME280;24384;51.988;4.644;2024-02-15T12:35:14;101224.66;;;16.62;100.00
38630;BME280;24384;51.988;4.644;2024-02-15T12:38:07;101220.06;;;16.99;100.00
38630;BME280;24384;51.988;4.644;2024-02-15T12:40:41;101216.69;;;17.29;100.00
38630;BME280;24384;51.988;4.644;2024-02-15T12:43:21;101221.66;;;17.99;100.00
38630;BME280;24384;51.988;4.644;2024-02-15T12:45:59;101204.13;;;17.79;100.00
38630;BME280;24384;51.988;4.644;2024-02-15T12:49:08;101205.84;;;16.82;100.00